sensor_id;sensor_type;location;lat;lon;timestamp;P1;durP1;ratioP1;P2;durP2;ratioP2
10977;SDS011;5542;48.272;10.794;2023-06-22T00:02:15;3.30;;;2.95;;
10977;SDS011;5542;48.272;10.794;2023-06-22T00:04:42;4.60;;;3.10;;
10977;SDS011;5542;48.272;10.794;2023-06-22T00:07:09;3.90;;;3.17;;
10977;SDS011;5542;48.272;10.794;2023-06-22T00:09:37;4.10;;;3.70;;
10977;SDS011;5542;48.272;10.794;2023-06-22T00:12:04;3.25;;;2.97;;
10977;SDS011;5542;48.272;10.794;2023-06-22T00:14:31;2.83;;;2.55;;
10977;SDS011;5542;48.272;10.794;2023-06-22T00:16:57;2.97;;;2.78;;
10977;SDS011;5542;48.272;10.794;2023-06-22T00:19:24;3.10;;;2.85;;
10977;SDS011;5542;48.272;10.794;2023-06-22T00:21:51;2.78;;;2.58;;
10977;SDS011;5542;48.272;10.794;2023-06-22T00:24:18;2.10;;;1.90;;
10977;SDS011;5542;48.272;10.794;2023-06-22T00:26:46;2.47;;;2.27;;
10977;SDS011;5542;48.272;10.794;2023-06-22T00:29:14;3.58;;;2.33;;
10977;SDS011;5542;48.272;10.794;2023-06-22T00:31:40;2.70;;;2.50;;
10977;SDS011;5542;48.272;10.794;2023-06-22T00:34:07;2.42;;;2.20;;
10977;SDS011;5542;48.272;10.794;2023-06-22T00:36:34;4.40;;;3.50;;
10977;SDS011;5542;48.272;10.794;2023-06-22T00:39:00;4.22;;;3.47;;
10977;SDS011;5542;48.272;10.794;2023-06-22T00:41:27;6.80;;;4.10;;
10977;SDS011;5542;48.272;10.794;2023-06-22T00:43:56;3.95;;;3.28;;
10977;SDS011;5542;48.272;10.794;2023-06-22T00:46:22;3.90;;;3.05;;
10977;SDS011;5542;48.272;10.794;2023-06-22T00:48:49;4.22;;;3.20;;
10977;SDS011;5542;48.272;10.794;2023-06-22T00:51:18;3.22;;;2.85;;
10977;SDS011;5542;48.272;10.794;2023-06-22T00:53:49;4.03;;;3.30;;
10977;SDS011;5542;48.272;10.794;2023-06-22T00:56:16;3.97;;;3.58;;
10977;SDS011;5542;48.272;10.794;2023-06-22T00:58:44;3.40;;;3.10;;
10977;SDS011;5542;48.272;10.794;2023-06-22T01:01:13;3.80;;;3.45;;
10977;SDS011;5542;48.272;10.794;2023-06-22T01:03:40;4.20;;;2.90;;
10977;SDS011;5542;48.272;10.794;2023-06-22T01:06:07;2.67;;;2.47;;
10977;SDS011;5542;48.272;10.794;2023-06-22T01:08:38;7.38;;;4.32;;
10977;SDS011;5542;48.272;10.794;2023-06-22T01:11:18;5.88;;;3.92;;
10977;SDS011;5542;48.272;10.794;2023-06-22T01:13:50;4.33;;;3.33;;
10977;SDS011;5542;48.272;10.794;2023-06-22T01:16:25;4.57;;;4.05;;
10977;SDS011;5542;48.272;10.794;2023-06-22T01:18:54;4.05;;;3.72;;
10977;SDS011;5542;48.272;10.794;2023-06-22T01:21:24;5.70;;;3.70;;
10977;SDS011;5542;48.272;10.794;2023-06-22T01:23:56;3.60;;;3.28;;
10977;SDS011;5542;48.272;10.794;2023-06-22T01:26:37;6.93;;;3.72;;
10977;SDS011;5542;48.272;10.794;2023-06-22T01:29:09;4.85;;;3.50;;
10977;SDS011;5542;48.272;10.794;2023-06-22T01:31:39;3.50;;;3.00;;
10977;SDS011;5542;48.272;10.794;2023-06-22T01:34:07;2.60;;;2.50;;
10977;SDS011;5542;48.272;10.794;2023-06-22T01:36:35;2.42;;;2.22;;
10977;SDS011;5542;48.272;10.794;2023-06-22T01:39:04;3.85;;;3.38;;
10977;SDS011;5542;48.272;10.794;2023-06-22T01:41:34;5.00;;;3.38;;
10977;SDS011;5542;48.272;10.794;2023-06-22T01:44:03;4.15;;;3.13;;
10977;SDS011;5542;48.272;10.794;2023-06-22T01:46:33;6.55;;;3.90;;
10977;SDS011;5542;48.272;10.794;2023-06-22T01:49:01;3.38;;;2.97;;
10977;SDS011;5542;48.272;10.794;2023-06-22T01:51:28;3.00;;;2.80;;
10977;SDS011;5542;48.272;10.794;2023-06-22T01:53:55;2.63;;;2.42;;
10977;SDS011;5542;48.272;10.794;2023-06-22T01:56:21;2.85;;;2.55;;
10977;SDS011;5542;48.272;10.794;2023-06-22T01:58:49;4.15;;;3.42;;
10977;SDS011;5542;48.272;10.794;2023-06-22T02:01:23;4.40;;;3.40;;
10977;SDS011;5542;48.272;10.794;2023-06-22T02:03:57;4.63;;;3.47;;
10977;SDS011;5542;48.272;10.794;2023-06-22T02:06:30;6.32;;;3.70;;
10977;SDS011;5542;48.272;10.794;2023-06-22T02:09:02;7.28;;;3.92;;
10977;SDS011;5542;48.272;10.794;2023-06-22T02:11:35;4.70;;;3.63;;
10977;SDS011;5542;48.272;10.794;2023-06-22T02:14:03;6.00;;;3.88;;
10977;SDS011;5542;48.272;10.794;2023-06-22T02:16:31;5.20;;;3.65;;
10977;SDS011;5542;48.272;10.794;2023-06-22T02:19:00;5.55;;;3.80;;
10977;SDS011;5542;48.272;10.794;2023-06-22T02:21:28;6.10;;;3.85;;
10977;SDS011;5542;48.272;10.794;2023-06-22T02:23:55;4.43;;;3.60;;
10977;SDS011;5542;48.272;10.794;2023-06-22T02:26:21;3.65;;;3.35;;
10977;SDS011;5542;48.272;10.794;2023-06-22T02:28:50;5.10;;;3.30;;
10977;SDS011;5542;48.272;10.794;2023-06-22T02:31:16;4.05;;;3.35;;
10977;SDS011;5542;48.272;10.794;2023-06-22T02:33:43;4.10;;;3.70;;
10977;SDS011;5542;48.272;10.794;2023-06-22T02:36:11;5.70;;;3.90;;
10977;SDS011;5542;48.272;10.794;2023-06-22T02:38:38;4.00;;;3.60;;
10977;SDS011;5542;48.272;10.794;2023-06-22T02:41:04;4.10;;;3.55;;
10977;SDS011;5542;48.272;10.794;2023-06-22T02:43:31;4.32;;;3.38;;
10977;SDS011;5542;48.272;10.794;2023-06-22T02:45:58;4.90;;;4.07;;
10977;SDS011;5542;48.272;10.794;2023-06-22T02:48:24;5.50;;;3.88;;
10977;SDS011;5542;48.272;10.794;2023-06-22T02:50:51;3.78;;;3.13;;
10977;SDS011;5542;48.272;10.794;2023-06-22T02:53:18;3.97;;;3.58;;
10977;SDS011;5542;48.272;10.794;2023-06-22T02:55:45;5.80;;;4.50;;
10977;SDS011;5542;48.272;10.794;2023-06-22T02:58:12;4.85;;;4.35;;
10977;SDS011;5542;48.272;10.794;2023-06-22T03:00:38;4.82;;;4.00;;
10977;SDS011;5542;48.272;10.794;2023-06-22T03:03:05;3.55;;;3.20;;
10977;SDS011;5542;48.272;10.794;2023-06-22T03:05:31;5.10;;;4.60;;
10977;SDS011;5542;48.272;10.794;2023-06-22T03:08:00;4.93;;;3.70;;
10977;SDS011;5542;48.272;10.794;2023-06-22T03:10:28;4.85;;;3.95;;
10977;SDS011;5542;48.272;10.794;2023-06-22T03:12:54;5.35;;;4.22;;
10977;SDS011;5542;48.272;10.794;2023-06-22T03:15:21;4.20;;;3.80;;
10977;SDS011;5542;48.272;10.794;2023-06-22T03:17:47;3.95;;;3.60;;
10977;SDS011;5542;48.272;10.794;2023-06-22T03:20:14;6.03;;;4.32;;
10977;SDS011;5542;48.272;10.794;2023-06-22T03:22:41;4.57;;;3.83;;
10977;SDS011;5542;48.272;10.794;2023-06-22T03:25:08;4.40;;;3.85;;
10977;SDS011;5542;48.272;10.794;2023-06-22T03:27:39;4.03;;;3.50;;
10977;SDS011;5542;48.272;10.794;2023-06-22T03:30:08;3.47;;;3.00;;
10977;SDS011;5542;48.272;10.794;2023-06-22T03:32:35;4.97;;;4.05;;
10977;SDS011;5542;48.272;10.794;2023-06-22T03:35:02;6.47;;;4.37;;
10977;SDS011;5542;48.272;10.794;2023-06-22T03:37:28;5.22;;;4.03;;
10977;SDS011;5542;48.272;10.794;2023-06-22T03:39:55;5.20;;;3.90;;
10977;SDS011;5542;48.272;10.794;2023-06-22T03:42:22;6.07;;;4.50;;
10977;SDS011;5542;48.272;10.794;2023-06-22T03:44:49;5.15;;;4.40;;
10977;SDS011;5542;48.272;10.794;2023-06-22T03:47:16;5.85;;;4.63;;
10977;SDS011;5542;48.272;10.794;2023-06-22T03:49:43;6.45;;;4.15;;
10977;SDS011;5542;48.272;10.794;2023-06-22T03:52:10;4.32;;;3.90;;
10977;SDS011;5542;48.272;10.794;2023-06-22T03:54:36;4.68;;;3.40;;
10977;SDS011;5542;48.272;10.794;2023-06-22T03:57:03;2.88;;;2.67;;
10977;SDS011;5542;48.272;10.794;2023-06-22T03:59:30;6.40;;;4.43;;
10977;SDS011;5542;48.272;10.794;2023-06-22T04:01:58;8.07;;;4.40;;
10977;SDS011;5542;48.272;10.794;2023-06-22T04:04:25;5.60;;;4.47;;
10977;SDS011;5542;48.272;10.794;2023-06-22T04:06:51;4.82;;;4.20;;
10977;SDS011;5542;48.272;10.794;2023-06-22T04:09:18;4.53;;;3.85;;
10977;SDS011;5542;48.272;10.794;2023-06-22T04:11:46;6.25;;;3.72;;
10977;SDS011;5542;48.272;10.794;2023-06-22T04:14:13;4.47;;;3.13;;
10977;SDS011;5542;48.272;10.794;2023-06-22T04:16:39;4.32;;;3.90;;
10977;SDS011;5542;48.272;10.794;2023-06-22T04:19:07;6.68;;;4.45;;
10977;SDS011;5542;48.272;10.794;2023-06-22T04:21:39;7.05;;;4.45;;
10977;SDS011;5542;48.272;10.794;2023-06-22T04:24:06;5.82;;;4.55;;
10977;SDS011;5542;48.272;10.794;2023-06-22T04:26:32;4.70;;;3.20;;
10977;SDS011;5542;48.272;10.794;2023-06-22T04:29:02;7.20;;;4.65;;
10977;SDS011;5542;48.272;10.794;2023-06-22T04:31:30;6.77;;;4.90;;
10977;SDS011;5542;48.272;10.794;2023-06-22T04:34:01;5.85;;;4.22;;
10977;SDS011;5542;48.272;10.794;2023-06-22T04:36:32;7.18;;;4.43;;
10977;SDS011;5542;48.272;10.794;2023-06-22T04:39:02;4.45;;;3.70;;
10977;SDS011;5542;48.272;10.794;2023-06-22T04:41:30;7.80;;;4.55;;
10977;SDS011;5542;48.272;10.794;2023-06-22T04:44:07;6.32;;;4.75;;
10977;SDS011;5542;48.272;10.794;2023-06-22T04:46:34;5.97;;;4.05;;
10977;SDS011;5542;48.272;10.794;2023-06-22T04:49:03;7.78;;;4.90;;
10977;SDS011;5542;48.272;10.794;2023-06-22T04:51:37;5.43;;;4.72;;
10977;SDS011;5542;48.272;10.794;2023-06-22T04:54:05;4.65;;;3.72;;
10977;SDS011;5542;48.272;10.794;2023-06-22T04:56:31;4.97;;;4.13;;
10977;SDS011;5542;48.272;10.794;2023-06-22T04:58:58;4.60;;;3.92;;
10977;SDS011;5542;48.272;10.794;2023-06-22T05:01:25;6.28;;;4.60;;
10977;SDS011;5542;48.272;10.794;2023-06-22T05:03:51;5.75;;;4.72;;
10977;SDS011;5542;48.272;10.794;2023-06-22T05:06:20;6.30;;;4.65;;
10977;SDS011;5542;48.272;10.794;2023-06-22T05:08:50;6.70;;;4.67;;
10977;SDS011;5542;48.272;10.794;2023-06-22T05:11:17;4.15;;;3.72;;
10977;SDS011;5542;48.272;10.794;2023-06-22T05:13:44;5.55;;;4.68;;
10977;SDS011;5542;48.272;10.794;2023-06-22T05:16:10;6.57;;;4.72;;
10977;SDS011;5542;48.272;10.794;2023-06-22T05:18:37;6.35;;;4.32;;
10977;SDS011;5542;48.272;10.794;2023-06-22T05:21:03;7.70;;;5.07;;
10977;SDS011;5542;48.272;10.794;2023-06-22T05:23:30;6.80;;;4.78;;
10977;SDS011;5542;48.272;10.794;2023-06-22T05:25:58;6.38;;;4.70;;
10977;SDS011;5542;48.272;10.794;2023-06-22T05:28:24;6.47;;;5.10;;
10977;SDS011;5542;48.272;10.794;2023-06-22T05:30:51;5.55;;;4.40;;
10977;SDS011;5542;48.272;10.794;2023-06-22T05:33:18;6.85;;;4.57;;
10977;SDS011;5542;48.272;10.794;2023-06-22T05:35:44;7.87;;;5.17;;
10977;SDS011;5542;48.272;10.794;2023-06-22T05:38:11;5.40;;;4.50;;
10977;SDS011;5542;48.272;10.794;2023-06-22T05:40:38;6.43;;;4.50;;
10977;SDS011;5542;48.272;10.794;2023-06-22T05:43:06;5.47;;;4.47;;
10977;SDS011;5542;48.272;10.794;2023-06-22T05:45:32;7.17;;;4.70;;
10977;SDS011;5542;48.272;10.794;2023-06-22T05:47:59;6.33;;;4.70;;
10977;SDS011;5542;48.272;10.794;2023-06-22T05:50:26;6.38;;;4.80;;
10977;SDS011;5542;48.272;10.794;2023-06-22T05:52:53;6.88;;;4.68;;
10977;SDS011;5542;48.272;10.794;2023-06-22T05:55:19;4.50;;;4.10;;
10977;SDS011;5542;48.272;10.794;2023-06-22T05:57:46;5.32;;;4.57;;
10977;SDS011;5542;48.272;10.794;2023-06-22T06:00:14;7.07;;;4.45;;
10977;SDS011;5542;48.272;10.794;2023-06-22T06:02:41;6.88;;;4.45;;
10977;SDS011;5542;48.272;10.794;2023-06-22T06:05:09;6.25;;;4.72;;
10977;SDS011;5542;48.272;10.794;2023-06-22T06:07:36;5.82;;;4.40;;
10977;SDS011;5542;48.272;10.794;2023-06-22T06:10:03;7.03;;;4.30;;
10977;SDS011;5542;48.272;10.794;2023-06-22T06:12:31;5.00;;;4.00;;
10977;SDS011;5542;48.272;10.794;2023-06-22T06:14:57;5.37;;;4.30;;
10977;SDS011;5542;48.272;10.794;2023-06-22T06:17:25;5.45;;;4.30;;
10977;SDS011;5542;48.272;10.794;2023-06-22T06:19:52;5.40;;;4.18;;
10977;SDS011;5542;48.272;10.794;2023-06-22T06:22:18;5.03;;;4.50;;
10977;SDS011;5542;48.272;10.794;2023-06-22T06:24:46;6.32;;;4.70;;
10977;SDS011;5542;48.272;10.794;2023-06-22T06:27:13;5.30;;;4.03;;
10977;SDS011;5542;48.272;10.794;2023-06-22T06:29:40;4.93;;;4.22;;
10977;SDS011;5542;48.272;10.794;2023-06-22T06:32:07;4.90;;;4.40;;
10977;SDS011;5542;48.272;10.794;2023-06-22T06:34:36;5.37;;;4.27;;
10977;SDS011;5542;48.272;10.794;2023-06-22T06:37:02;9.25;;;5.05;;
10977;SDS011;5542;48.272;10.794;2023-06-22T06:39:29;6.32;;;4.82;;
10977;SDS011;5542;48.272;10.794;2023-06-22T06:41:56;5.50;;;4.60;;
10977;SDS011;5542;48.272;10.794;2023-06-22T06:44:22;6.63;;;4.57;;
10977;SDS011;5542;48.272;10.794;2023-06-22T06:46:49;5.45;;;4.60;;
10977;SDS011;5542;48.272;10.794;2023-06-22T06:49:15;5.20;;;4.70;;
10977;SDS011;5542;48.272;10.794;2023-06-22T06:51:43;8.18;;;5.40;;
10977;SDS011;5542;48.272;10.794;2023-06-22T06:54:10;7.20;;;4.40;;
10977;SDS011;5542;48.272;10.794;2023-06-22T06:56:37;6.53;;;4.60;;
10977;SDS011;5542;48.272;10.794;2023-06-22T06:59:03;6.73;;;4.60;;
10977;SDS011;5542;48.272;10.794;2023-06-22T07:01:30;5.10;;;4.50;;
10977;SDS011;5542;48.272;10.794;2023-06-22T07:03:58;9.27;;;4.95;;
10977;SDS011;5542;48.272;10.794;2023-06-22T07:06:25;8.52;;;5.07;;
10977;SDS011;5542;48.272;10.794;2023-06-22T07:08:55;7.38;;;4.57;;
10977;SDS011;5542;48.272;10.794;2023-06-22T07:11:22;6.65;;;4.82;;
10977;SDS011;5542;48.272;10.794;2023-06-22T07:13:48;5.75;;;4.22;;
10977;SDS011;5542;48.272;10.794;2023-06-22T07:16:15;6.47;;;4.40;;
10977;SDS011;5542;48.272;10.794;2023-06-22T07:18:42;7.70;;;5.15;;
10977;SDS011;5542;48.272;10.794;2023-06-22T07:21:08;7.72;;;4.57;;
10977;SDS011;5542;48.272;10.794;2023-06-22T07:23:35;9.95;;;5.07;;
10977;SDS011;5542;48.272;10.794;2023-06-22T07:26:03;7.10;;;5.05;;
10977;SDS011;5542;48.272;10.794;2023-06-22T07:28:31;7.65;;;5.03;;
10977;SDS011;5542;48.272;10.794;2023-06-22T07:31:02;5.00;;;4.43;;
10977;SDS011;5542;48.272;10.794;2023-06-22T07:33:28;8.25;;;5.47;;
10977;SDS011;5542;48.272;10.794;2023-06-22T07:35:55;8.23;;;5.20;;
10977;SDS011;5542;48.272;10.794;2023-06-22T07:38:22;5.60;;;4.63;;
10977;SDS011;5542;48.272;10.794;2023-06-22T07:40:48;7.28;;;4.85;;
10977;SDS011;5542;48.272;10.794;2023-06-22T07:43:17;8.75;;;5.20;;
10977;SDS011;5542;48.272;10.794;2023-06-22T07:45:48;6.72;;;5.20;;
10977;SDS011;5542;48.272;10.794;2023-06-22T07:48:17;7.97;;;5.35;;
10977;SDS011;5542;48.272;10.794;2023-06-22T07:50:43;6.40;;;4.63;;
10977;SDS011;5542;48.272;10.794;2023-06-22T07:53:10;8.48;;;5.40;;
10977;SDS011;5542;48.272;10.794;2023-06-22T07:55:36;9.38;;;5.18;;
10977;SDS011;5542;48.272;10.794;2023-06-22T07:58:03;7.20;;;5.10;;
10977;SDS011;5542;48.272;10.794;2023-06-22T08:00:31;8.80;;;5.43;;
10977;SDS011;5542;48.272;10.794;2023-06-22T08:02:58;8.32;;;4.85;;
10977;SDS011;5542;48.272;10.794;2023-06-22T08:05:25;7.95;;;4.90;;
10977;SDS011;5542;48.272;10.794;2023-06-22T08:07:52;6.63;;;4.93;;
10977;SDS011;5542;48.272;10.794;2023-06-22T08:10:20;9.48;;;5.25;;
10977;SDS011;5542;48.272;10.794;2023-06-22T08:12:48;5.18;;;4.63;;
10977;SDS011;5542;48.272;10.794;2023-06-22T08:15:16;7.28;;;5.22;;
10977;SDS011;5542;48.272;10.794;2023-06-22T08:17:45;6.32;;;5.32;;
10977;SDS011;5542;48.272;10.794;2023-06-22T08:20:11;7.35;;;4.88;;
10977;SDS011;5542;48.272;10.794;2023-06-22T08:22:38;7.65;;;5.55;;
10977;SDS011;5542;48.272;10.794;2023-06-22T08:25:05;9.95;;;5.75;;
10977;SDS011;5542;48.272;10.794;2023-06-22T08:27:35;7.70;;;5.20;;
10977;SDS011;5542;48.272;10.794;2023-06-22T08:30:03;8.88;;;5.50;;
10977;SDS011;5542;48.272;10.794;2023-06-22T08:32:30;8.77;;;5.22;;
10977;SDS011;5542;48.272;10.794;2023-06-22T08:34:59;9.65;;;5.40;;
10977;SDS011;5542;48.272;10.794;2023-06-22T08:37:26;6.50;;;4.93;;
10977;SDS011;5542;48.272;10.794;2023-06-22T08:39:56;5.65;;;4.20;;
10977;SDS011;5542;48.272;10.794;2023-06-22T08:42:25;6.30;;;4.65;;
10977;SDS011;5542;48.272;10.794;2023-06-22T08:44:52;7.03;;;5.72;;
10977;SDS011;5542;48.272;10.794;2023-06-22T08:47:18;7.45;;;5.05;;
10977;SDS011;5542;48.272;10.794;2023-06-22T08:49:45;5.28;;;4.45;;
10977;SDS011;5542;48.272;10.794;2023-06-22T08:52:13;10.10;;;5.55;;
10977;SDS011;5542;48.272;10.794;2023-06-22T08:54:40;8.57;;;5.75;;
10977;SDS011;5542;48.272;10.794;2023-06-22T08:57:06;9.02;;;5.28;;
10977;SDS011;5542;48.272;10.794;2023-06-22T08:59:33;9.20;;;5.25;;
10977;SDS011;5542;48.272;10.794;2023-06-22T09:02:00;6.82;;;5.60;;
10977;SDS011;5542;48.272;10.794;2023-06-22T09:04:26;10.20;;;5.10;;
10977;SDS011;5542;48.272;10.794;2023-06-22T09:06:53;8.65;;;4.93;;
10977;SDS011;5542;48.272;10.794;2023-06-22T09:09:21;8.40;;;5.32;;
10977;SDS011;5542;48.272;10.794;2023-06-22T09:11:48;6.82;;;4.85;;
10977;SDS011;5542;48.272;10.794;2023-06-22T09:14:14;8.07;;;5.03;;
10977;SDS011;5542;48.272;10.794;2023-06-22T09:16:41;11.43;;;5.38;;
10977;SDS011;5542;48.272;10.794;2023-06-22T09:19:08;7.68;;;4.93;;
10977;SDS011;5542;48.272;10.794;2023-06-22T09:21:34;6.88;;;5.22;;
10977;SDS011;5542;48.272;10.794;2023-06-22T09:24:01;9.80;;;5.70;;
10977;SDS011;5542;48.272;10.794;2023-06-22T09:26:29;9.00;;;5.20;;
10977;SDS011;5542;48.272;10.794;2023-06-22T09:28:55;9.25;;;5.20;;
10977;SDS011;5542;48.272;10.794;2023-06-22T09:31:22;9.65;;;4.80;;
10977;SDS011;5542;48.272;10.794;2023-06-22T09:33:50;6.03;;;4.53;;
10977;SDS011;5542;48.272;10.794;2023-06-22T09:36:18;9.63;;;5.38;;
10977;SDS011;5542;48.272;10.794;2023-06-22T09:38:44;9.05;;;5.85;;
10977;SDS011;5542;48.272;10.794;2023-06-22T09:41:11;7.53;;;5.78;;
10977;SDS011;5542;48.272;10.794;2023-06-22T09:43:39;6.18;;;4.57;;
10977;SDS011;5542;48.272;10.794;2023-06-22T09:46:05;7.53;;;5.40;;
10977;SDS011;5542;48.272;10.794;2023-06-22T09:48:34;9.15;;;4.93;;
10977;SDS011;5542;48.272;10.794;2023-06-22T09:51:01;8.23;;;4.93;;
10977;SDS011;5542;48.272;10.794;2023-06-22T09:53:27;7.07;;;4.82;;
10977;SDS011;5542;48.272;10.794;2023-06-22T09:55:54;8.90;;;6.05;;
10977;SDS011;5542;48.272;10.794;2023-06-22T09:58:20;5.90;;;5.03;;
10977;SDS011;5542;48.272;10.794;2023-06-22T10:00:48;9.75;;;5.50;;
10977;SDS011;5542;48.272;10.794;2023-06-22T10:03:15;9.37;;;5.70;;
10977;SDS011;5542;48.272;10.794;2023-06-22T10:05:41;8.38;;;5.40;;
10977;SDS011;5542;48.272;10.794;2023-06-22T10:08:08;8.40;;;5.10;;
10977;SDS011;5542;48.272;10.794;2023-06-22T10:10:35;8.27;;;5.00;;
10977;SDS011;5542;48.272;10.794;2023-06-22T10:13:02;8.27;;;5.57;;
10977;SDS011;5542;48.272;10.794;2023-06-22T10:15:34;9.05;;;4.97;;
10977;SDS011;5542;48.272;10.794;2023-06-22T10:18:02;6.85;;;4.80;;
10977;SDS011;5542;48.272;10.794;2023-06-22T10:20:29;7.18;;;5.18;;
10977;SDS011;5542;48.272;10.794;2023-06-22T10:22:55;7.25;;;4.78;;
10977;SDS011;5542;48.272;10.794;2023-06-22T10:25:22;6.97;;;4.70;;
10977;SDS011;5542;48.272;10.794;2023-06-22T10:27:48;7.55;;;5.22;;
10977;SDS011;5542;48.272;10.794;2023-06-22T10:30:15;10.03;;;5.50;;
10977;SDS011;5542;48.272;10.794;2023-06-22T10:32:42;9.38;;;5.20;;
10977;SDS011;5542;48.272;10.794;2023-06-22T10:35:10;5.60;;;4.30;;
10977;SDS011;5542;48.272;10.794;2023-06-22T10:37:38;7.93;;;5.17;;
10977;SDS011;5542;48.272;10.794;2023-06-22T10:40:05;5.72;;;5.00;;
10977;SDS011;5542;48.272;10.794;2023-06-22T10:42:33;7.87;;;4.57;;
10977;SDS011;5542;48.272;10.794;2023-06-22T10:44:59;8.50;;;5.13;;
10977;SDS011;5542;48.272;10.794;2023-06-22T10:47:26;5.63;;;4.22;;
10977;SDS011;5542;48.272;10.794;2023-06-22T10:49:53;5.33;;;4.30;;
10977;SDS011;5542;48.272;10.794;2023-06-22T10:52:20;7.97;;;5.13;;
10977;SDS011;5542;48.272;10.794;2023-06-22T10:54:47;5.43;;;4.00;;
10977;SDS011;5542;48.272;10.794;2023-06-22T10:57:14;6.40;;;4.63;;
10977;SDS011;5542;48.272;10.794;2023-06-22T10:59:40;5.07;;;4.57;;
10977;SDS011;5542;48.272;10.794;2023-06-22T11:02:07;6.25;;;4.38;;
10977;SDS011;5542;48.272;10.794;2023-06-22T11:04:33;6.60;;;4.35;;
10977;SDS011;5542;48.272;10.794;2023-06-22T11:07:00;6.55;;;4.85;;
10977;SDS011;5542;48.272;10.794;2023-06-22T11:09:28;9.57;;;5.78;;
10977;SDS011;5542;48.272;10.794;2023-06-22T11:11:55;9.20;;;5.65;;
10977;SDS011;5542;48.272;10.794;2023-06-22T11:14:23;8.00;;;5.07;;
10977;SDS011;5542;48.272;10.794;2023-06-22T11:16:50;5.35;;;4.25;;
10977;SDS011;5542;48.272;10.794;2023-06-22T11:19:16;6.87;;;4.37;;
10977;SDS011;5542;48.272;10.794;2023-06-22T11:21:43;8.10;;;5.03;;
10977;SDS011;5542;48.272;10.794;2023-06-22T11:24:10;5.10;;;4.55;;
10977;SDS011;5542;48.272;10.794;2023-06-22T11:26:38;6.75;;;4.30;;
10977;SDS011;5542;48.272;10.794;2023-06-22T11:29:04;5.65;;;4.90;;
10977;SDS011;5542;48.272;10.794;2023-06-22T11:31:31;6.43;;;4.63;;
10977;SDS011;5542;48.272;10.794;2023-06-22T11:33:58;6.32;;;4.97;;
10977;SDS011;5542;48.272;10.794;2023-06-22T11:36:24;7.70;;;4.90;;
10977;SDS011;5542;48.272;10.794;2023-06-22T11:38:52;8.18;;;4.80;;
10977;SDS011;5542;48.272;10.794;2023-06-22T11:41:18;7.18;;;4.78;;
10977;SDS011;5542;48.272;10.794;2023-06-22T11:43:46;7.23;;;5.17;;
10977;SDS011;5542;48.272;10.794;2023-06-22T11:46:13;5.93;;;4.50;;
10977;SDS011;5542;48.272;10.794;2023-06-22T11:48:39;9.93;;;4.60;;
10977;SDS011;5542;48.272;10.794;2023-06-22T11:51:06;4.72;;;4.30;;
10977;SDS011;5542;48.272;10.794;2023-06-22T11:53:33;4.20;;;3.80;;
10977;SDS011;5542;48.272;10.794;2023-06-22T11:56:00;7.53;;;4.97;;
10977;SDS011;5542;48.272;10.794;2023-06-22T11:58:27;6.18;;;4.50;;
10977;SDS011;5542;48.272;10.794;2023-06-22T12:00:55;4.93;;;4.32;;
10977;SDS011;5542;48.272;10.794;2023-06-22T12:03:21;10.65;;;5.30;;
10977;SDS011;5542;48.272;10.794;2023-06-22T12:05:49;6.43;;;4.97;;
10977;SDS011;5542;48.272;10.794;2023-06-22T12:08:16;7.93;;;4.40;;
10977;SDS011;5542;48.272;10.794;2023-06-22T12:10:42;4.78;;;4.22;;
10977;SDS011;5542;48.272;10.794;2023-06-22T12:13:09;8.03;;;5.63;;
10977;SDS011;5542;48.272;10.794;2023-06-22T12:15:35;5.43;;;4.90;;
10977;SDS011;5542;48.272;10.794;2023-06-22T12:18:03;7.93;;;4.55;;
10977;SDS011;5542;48.272;10.794;2023-06-22T12:20:30;6.35;;;5.10;;
10977;SDS011;5542;48.272;10.794;2023-06-22T12:22:57;7.07;;;4.87;;
10977;SDS011;5542;48.272;10.794;2023-06-22T12:25:24;6.50;;;4.45;;
10977;SDS011;5542;48.272;10.794;2023-06-22T12:27:50;8.55;;;5.28;;
10977;SDS011;5542;48.272;10.794;2023-06-22T12:30:17;5.65;;;3.95;;
10977;SDS011;5542;48.272;10.794;2023-06-22T12:32:44;9.57;;;5.88;;
10977;SDS011;5542;48.272;10.794;2023-06-22T12:35:11;4.93;;;4.45;;
10977;SDS011;5542;48.272;10.794;2023-06-22T12:37:40;8.10;;;4.90;;
10977;SDS011;5542;48.272;10.794;2023-06-22T12:40:07;7.88;;;5.40;;
10977;SDS011;5542;48.272;10.794;2023-06-22T12:42:35;7.75;;;5.25;;
10977;SDS011;5542;48.272;10.794;2023-06-22T12:45:01;10.02;;;5.38;;
10977;SDS011;5542;48.272;10.794;2023-06-22T12:47:28;5.40;;;4.30;;
10977;SDS011;5542;48.272;10.794;2023-06-22T12:49:54;6.65;;;4.93;;
10977;SDS011;5542;48.272;10.794;2023-06-22T12:52:22;7.15;;;4.25;;
10977;SDS011;5542;48.272;10.794;2023-06-22T12:54:49;5.85;;;4.70;;
10977;SDS011;5542;48.272;10.794;2023-06-22T12:57:15;5.25;;;4.00;;
10977;SDS011;5542;48.272;10.794;2023-06-22T12:59:44;6.60;;;5.07;;
10977;SDS011;5542;48.272;10.794;2023-06-22T13:02:11;8.32;;;5.13;;
10977;SDS011;5542;48.272;10.794;2023-06-22T13:04:38;5.95;;;4.32;;
10977;SDS011;5542;48.272;10.794;2023-06-22T13:07:05;6.45;;;4.90;;
10977;SDS011;5542;48.272;10.794;2023-06-22T13:09:33;8.35;;;4.93;;
10977;SDS011;5542;48.272;10.794;2023-06-22T13:12:00;6.78;;;4.30;;
10977;SDS011;5542;48.272;10.794;2023-06-22T13:14:27;8.38;;;4.63;;
10977;SDS011;5542;48.272;10.794;2023-06-22T13:16:53;5.85;;;4.40;;
10977;SDS011;5542;48.272;10.794;2023-06-22T13:19:20;7.87;;;4.57;;
10977;SDS011;5542;48.272;10.794;2023-06-22T13:21:46;7.78;;;4.80;;
10977;SDS011;5542;48.272;10.794;2023-06-22T13:24:13;5.68;;;4.50;;
10977;SDS011;5542;48.272;10.794;2023-06-22T13:26:41;7.80;;;5.13;;
10977;SDS011;5542;48.272;10.794;2023-06-22T13:29:08;5.90;;;4.37;;
10977;SDS011;5542;48.272;10.794;2023-06-22T13:31:34;6.97;;;5.07;;
10977;SDS011;5542;48.272;10.794;2023-06-22T13:34:01;8.80;;;5.00;;
10977;SDS011;5542;48.272;10.794;2023-06-22T13:36:27;6.85;;;4.70;;
10977;SDS011;5542;48.272;10.794;2023-06-22T13:38:55;4.45;;;3.90;;
10977;SDS011;5542;48.272;10.794;2023-06-22T13:41:22;5.72;;;4.47;;
10977;SDS011;5542;48.272;10.794;2023-06-22T13:43:50;8.55;;;4.70;;
10977;SDS011;5542;48.272;10.794;2023-06-22T13:46:16;7.80;;;4.40;;
10977;SDS011;5542;48.272;10.794;2023-06-22T13:48:43;4.00;;;3.60;;
10977;SDS011;5542;48.272;10.794;2023-06-22T13:51:10;5.75;;;4.22;;
10977;SDS011;5542;48.272;10.794;2023-06-22T13:53:36;4.90;;;4.38;;
10977;SDS011;5542;48.272;10.794;2023-06-22T13:56:03;4.97;;;4.07;;
10977;SDS011;5542;48.272;10.794;2023-06-22T13:58:29;4.43;;;4.03;;
10977;SDS011;5542;48.272;10.794;2023-06-22T14:00:57;5.00;;;3.95;;
10977;SDS011;5542;48.272;10.794;2023-06-22T14:03:24;4.22;;;3.65;;
10977;SDS011;5542;48.272;10.794;2023-06-22T14:05:51;5.97;;;3.92;;
10977;SDS011;5542;48.272;10.794;2023-06-22T14:08:19;6.30;;;4.60;;
10977;SDS011;5542;48.272;10.794;2023-06-22T14:10:48;5.90;;;4.32;;
10977;SDS011;5542;48.272;10.794;2023-06-22T14:13:15;6.28;;;4.68;;
10977;SDS011;5542;48.272;10.794;2023-06-22T14:15:41;6.72;;;4.70;;
10977;SDS011;5542;48.272;10.794;2023-06-22T14:18:09;4.55;;;4.05;;
10977;SDS011;5542;48.272;10.794;2023-06-22T14:20:36;7.38;;;5.07;;
10977;SDS011;5542;48.272;10.794;2023-06-22T14:23:02;6.13;;;4.30;;
10977;SDS011;5542;48.272;10.794;2023-06-22T14:25:29;4.30;;;3.90;;
10977;SDS011;5542;48.272;10.794;2023-06-22T14:27:56;5.60;;;4.23;;
10977;SDS011;5542;48.272;10.794;2023-06-22T14:30:22;7.18;;;4.43;;
10977;SDS011;5542;48.272;10.794;2023-06-22T14:32:49;6.45;;;4.88;;
10977;SDS011;5542;48.272;10.794;2023-06-22T14:35:17;6.22;;;4.43;;
10977;SDS011;5542;48.272;10.794;2023-06-22T14:37:43;6.78;;;4.40;;
10977;SDS011;5542;48.272;10.794;2023-06-22T14:40:10;5.82;;;4.20;;
10977;SDS011;5542;48.272;10.794;2023-06-22T14:42:38;6.22;;;4.10;;
10977;SDS011;5542;48.272;10.794;2023-06-22T14:45:05;6.88;;;4.40;;
10977;SDS011;5542;48.272;10.794;2023-06-22T14:47:32;4.23;;;3.60;;
10977;SDS011;5542;48.272;10.794;2023-06-22T14:49:59;7.68;;;4.85;;